Time,TemperatureF,DewpointF,PressureIn,WindDirection,WindDirectionDegrees,WindSpeedMPH,WindSpeedGustMPH,Humidity,HourlyPrecipIn,Conditions,Clouds,dailyrainin,SoftwareType,DateUTC
2013-02-13 00:02:00,25.9,6.0,21.11,WNW,285,17.4,18.3,42,0.00,,---,0.00,VWS V14.01,2013-02-13 07:02:00,
2013-02-13 00:08:00,26.1,6.1,21.11,WNW,293,11.0,15.4,42,0.00,,---,0.00,VWS V14.01,2013-02-13 07:08:00,
2013-02-13 00:13:00,25.9,6.0,21.11,WNW,287,15.4,15.4,42,0.00,,---,0.00,VWS V14.01,2013-02-13 07:13:00,
2013-02-13 00:18:00,25.9,6.0,21.11,WNW,295,12.8,12.8,42,0.00,,---,0.00,VWS V14.01,2013-02-13 07:18:00,
2013-02-13 00:23:00,25.7,5.8,21.11,WNW,284,12.8,12.8,42,0.00,,---,0.00,VWS V14.01,2013-02-13 07:23:00,
2013-02-13 00:29:00,25.7,5.8,21.11,WNW,295,13.2,13.2,42,0.00,,---,0.00,VWS V14.01,2013-02-13 07:29:00,
2013-02-13 00:34:00,25.7,5.8,21.11,West,272,8.3,8.3,42,0.00,,---,0.00,VWS V14.01,2013-02-13 07:34:00,
2013-02-13 00:40:00,25.0,5.1,21.11,WNW,282,8.7,8.7,42,0.00,,---,0.00,VWS V14.01,2013-02-13 07:40:00,
2013-02-13 00:46:00,24.4,5.2,21.11,West,277,12.3,12.3,43,0.00,,---,0.00,VWS V14.01,2013-02-13 07:46:00,
2013-02-13 00:51:00,24.3,5.0,21.11,West,278,11.0,12.3,43,0.00,,---,0.00,VWS V14.01,2013-02-13 07:51:00,
2013-02-13 00:57:00,24.3,5.0,21.11,WNW,286,11.0,11.0,43,0.00,,---,0.00,VWS V14.01,2013-02-13 07:57:00,
2013-02-13 01:02:00,24.3,5.0,21.11,WNW,284,11.0,11.0,43,0.00,,---,0.00,VWS V14.01,2013-02-13 08:02:00,
2013-02-13 01:07:00,24.1,4.8,21.11,West,280,12.8,12.8,43,0.00,,---,0.00,VWS V14.01,2013-02-13 08:07:00,
2013-02-13 01:12:00,23.7,4.5,21.11,West,280,12.8,12.8,43,0.00,,---,0.00,VWS V14.01,2013-02-13 08:12:00,
2013-02-13 01:17:00,23.7,4.5,21.11,West,277,10.1,10.1,43,0.00,,---,0.00,VWS V14.01,2013-02-13 08:17:00,
2013-02-13 01:22:00,23.5,4.3,21.11,West,268,8.3,8.3,43,0.00,,---,0.00,VWS V14.01,2013-02-13 08:22:00,
2013-02-13 01:27:00,23.5,4.3,21.11,West,265,9.6,9.6,43,0.00,,---,0.00,VWS V14.01,2013-02-13 08:27:00,
2013-02-13 01:33:00,23.4,4.2,21.11,West,279,11.0,11.0,43,0.00,,---,0.00,VWS V14.01,2013-02-13 08:33:00,
2013-02-13 01:39:00,22.8,4.2,21.11,West,273,8.3,8.3,44,0.00,,---,0.00,VWS V14.01,2013-02-13 08:39:00,
2013-02-13 01:44:00,22.8,4.2,21.11,West,265,10.1,10.1,44,0.00,,---,0.00,VWS V14.01,2013-02-13 08:44:00,
2013-02-13 01:50:00,22.3,3.7,21.11,West,267,10.5,10.5,44,0.00,,---,0.00,VWS V14.01,2013-02-13 08:50:00,
2013-02-13 01:56:00,22.3,3.7,21.11,West,260,8.3,8.3,44,0.00,,---,0.00,VWS V14.01,2013-02-13 08:56:00,
2013-02-13 02:01:00,22.1,3.5,21.11,West,272,12.8,12.8,44,0.00,,---,0.00,VWS V14.01,2013-02-13 09:01:00,
2013-02-13 02:07:00,21.7,3.2,21.11,West,265,12.3,12.8,44,0.00,,---,0.00,VWS V14.01,2013-02-13 09:07:00,
2013-02-13 02:12:00,21.6,3.5,21.11,West,271,11.0,11.0,45,0.00,,---,0.00,VWS V14.01,2013-02-13 09:12:00,
2013-02-13 02:18:00,21.6,3.5,21.11,West,270,11.0,11.0,45,0.00,,---,0.00,VWS V14.01,2013-02-13 09:18:00,
2013-02-13 02:23:00,21.0,3.0,21.11,West,270,10.5,10.5,45,0.00,,---,0.00,VWS V14.01,2013-02-13 09:23:00,
2013-02-13 02:29:00,20.8,2.9,21.11,WSW,254,5.8,8.7,45,0.00,,---,0.00,VWS V14.01,2013-02-13 09:29:00,
2013-02-13 02:35:00,20.7,3.2,21.11,WSW,252,6.3,6.3,46,0.00,,---,0.00,VWS V14.01,2013-02-13 09:35:00,
2013-02-13 02:40:00,20.7,3.2,21.11,WSW,252,6.7,6.7,46,0.00,,---,0.00,VWS V14.01,2013-02-13 09:40:00,
2013-02-13 02:46:00,20.7,3.2,21.11,WSW,254,8.1,8.1,46,0.00,,---,0.00,VWS V14.01,2013-02-13 09:46:00,
2013-02-13 02:52:00,20.1,2.7,21.11,WSW,252,6.7,6.7,46,0.00,,---,0.00,VWS V14.01,2013-02-13 09:52:00,
2013-02-13 02:57:00,19.6,2.6,21.11,WSW,254,7.6,8.1,47,0.00,,---,0.00,VWS V14.01,2013-02-13 09:57:00,
2013-02-13 03:02:00,19.6,2.6,21.11,WSW,253,7.6,7.6,47,0.00,,---,0.00,VWS V14.01,2013-02-13 10:02:00,
2013-02-13 03:07:00,19.6,2.6,21.11,West,259,8.1,8.1,47,0.00,,---,0.00,VWS V14.01,2013-02-13 10:07:00,
2013-02-13 03:13:00,21.0,4.9,21.11,West,269,11.0,11.0,49,0.00,,---,0.00,VWS V14.01,2013-02-13 10:13:00,
2013-02-13 03:18:00,21.2,5.5,21.11,WSW,254,8.7,11.0,50,0.00,,---,0.00,VWS V14.01,2013-02-13 10:18:00,
2013-02-13 03:24:00,21.9,6.1,21.11,West,262,7.6,7.6,50,0.00,,---,0.00,VWS V14.01,2013-02-13 10:24:00,
2013-02-13 03:29:00,21.9,6.1,21.11,WSW,251,8.1,8.1,50,0.00,,---,0.00,VWS V14.01,2013-02-13 10:29:00,
2013-02-13 03:35:00,21.9,6.1,21.11,West,271,8.3,9.2,50,0.00,,---,0.00,VWS V14.01,2013-02-13 10:35:00,
2013-02-13 03:40:00,23.0,6.7,21.11,West,268,8.3,8.3,49,0.00,,---,0.00,VWS V14.01,2013-02-13 10:40:00,
2013-02-13 03:45:00,23.2,6.4,21.11,West,266,10.5,10.5,48,0.00,,---,0.00,VWS V14.01,2013-02-13 10:45:00,
2013-02-13 03:50:00,23.4,6.6,21.11,West,262,10.5,10.5,48,0.00,,---,0.00,VWS V14.01,2013-02-13 10:50:00,
2013-02-13 03:56:00,23.4,6.6,21.11,West,271,9.6,9.6,48,0.00,,---,0.00,VWS V14.01,2013-02-13 10:56:00,
2013-02-13 04:01:00,23.4,6.6,21.11,WSW,255,8.3,8.3,48,0.00,,---,0.00,VWS V14.01,2013-02-13 11:01:00,
2013-02-13 04:07:00,23.2,6.4,21.11,WNW,283,8.1,8.3,48,0.00,,---,0.00,VWS V14.01,2013-02-13 11:07:00,
2013-02-13 04:12:00,23.0,6.2,21.11,WNW,283,8.1,8.1,48,0.00,,---,0.00,VWS V14.01,2013-02-13 11:12:00,
2013-02-13 04:18:00,23.2,6.4,21.11,WNW,287,8.1,8.1,48,0.00,,---,0.00,VWS V14.01,2013-02-13 11:18:00,
2013-02-13 04:22:00,24.1,7.7,21.11,West,278,10.1,10.1,49,0.00,,---,0.00,VWS V14.01,2013-02-13 11:22:00,
2013-02-13 04:28:00,24.4,8.0,21.11,West,274,12.8,12.8,49,0.00,,---,0.00,VWS V14.01,2013-02-13 11:28:00,
2013-02-13 04:34:00,24.6,8.2,21.11,West,274,10.5,10.5,49,0.00,,---,0.00,VWS V14.01,2013-02-13 11:34:00,
2013-02-13 04:39:00,24.6,7.7,21.11,West,268,10.5,10.5,48,0.00,,---,0.00,VWS V14.01,2013-02-13 11:39:00,
2013-02-13 04:45:00,24.6,7.7,21.11,West,276,10.1,10.1,48,0.00,,---,0.00,VWS V14.01,2013-02-13 11:45:00,
2013-02-13 04:51:00,24.6,7.3,21.11,West,268,10.1,10.1,47,0.00,,---,0.00,VWS V14.01,2013-02-13 11:51:00,
2013-02-13 04:56:00,24.4,7.1,21.11,West,281,8.7,8.7,47,0.00,,---,0.00,VWS V14.01,2013-02-13 11:56:00,
2013-02-13 05:02:00,24.4,7.1,21.11,West,277,10.5,10.5,47,0.00,,---,0.00,VWS V14.01,2013-02-13 12:02:00,
2013-02-13 05:07:00,24.4,7.1,21.11,West,277,10.5,10.5,47,0.00,,---,0.00,VWS V14.01,2013-02-13 12:07:00,
2013-02-13 05:12:00,24.6,7.3,21.11,WNW,289,8.7,8.7,47,0.00,,---,0.00,VWS V14.01,2013-02-13 12:12:00,
2013-02-13 05:17:00,24.6,7.3,21.11,West,281,13.2,13.2,47,0.00,,---,0.00,VWS V14.01,2013-02-13 12:17:00,
2013-02-13 05:23:00,25.5,8.1,21.11,WNW,288,12.8,12.8,47,0.00,,---,0.00,VWS V14.01,2013-02-13 12:23:00,
2013-02-13 05:29:00,25.9,8.0,21.11,West,276,10.5,10.5,46,0.00,,---,0.00,VWS V14.01,2013-02-13 12:29:00,
2013-02-13 05:34:00,26.1,8.1,21.11,West,275,11.0,13.6,46,0.00,,---,0.00,VWS V14.01,2013-02-13 12:34:00,
2013-02-13 05:40:00,26.2,7.8,21.11,West,272,11.9,11.9,45,0.00,,---,0.00,VWS V14.01,2013-02-13 12:40:00,
2013-02-13 05:45:00,26.4,8.0,21.11,WNW,298,10.5,12.8,45,0.00,,---,0.00,VWS V14.01,2013-02-13 12:45:00,
2013-02-13 05:51:00,26.6,8.1,21.11,WNW,284,13.6,13.6,45,0.00,,---,0.00,VWS V14.01,2013-02-13 12:51:00,
2013-02-13 05:57:00,26.4,7.5,21.11,West,280,10.1,10.1,44,0.00,,---,0.00,VWS V14.01,2013-02-13 12:57:00,
2013-02-13 06:02:00,26.4,7.5,21.11,West,277,10.1,11.0,44,0.00,,---,0.00,VWS V14.01,2013-02-13 13:02:00,
2013-02-13 06:08:00,26.1,7.2,21.11,West,278,10.5,10.5,44,0.00,,---,0.00,VWS V14.01,2013-02-13 13:08:00,
2013-02-13 06:14:00,25.2,6.3,21.11,West,267,8.7,8.7,44,0.00,,---,0.00,VWS V14.01,2013-02-13 13:14:00,
2013-02-13 06:19:00,24.8,6.0,21.11,West,266,10.1,10.1,44,0.00,,---,0.00,VWS V14.01,2013-02-13 13:19:00,
2013-02-13 06:25:00,24.1,5.3,21.11,West,266,10.1,10.1,44,0.00,,---,0.00,VWS V14.01,2013-02-13 13:25:00,
2013-02-13 06:30:00,23.9,5.2,21.11,West,266,10.1,10.1,44,0.00,,---,0.00,VWS V14.01,2013-02-13 13:30:00,
2013-02-13 06:36:00,23.9,5.2,21.11,WSW,255,8.7,8.7,44,0.00,,---,0.00,VWS V14.01,2013-02-13 13:36:00,
2013-02-13 06:42:00,23.4,5.2,21.11,West,267,10.5,10.5,45,0.00,,---,0.00,VWS V14.01,2013-02-13 13:42:00,
2013-02-13 06:47:00,23.0,5.3,21.11,West,269,11.0,11.0,46,0.00,,---,0.00,VWS V14.01,2013-02-13 13:47:00,
2013-02-13 06:53:00,23.2,5.5,21.11,West,260,10.5,10.5,46,0.00,,---,0.00,VWS V14.01,2013-02-13 13:53:00,
2013-02-13 06:58:00,23.4,5.7,21.11,West,261,9.2,9.2,46,0.00,,---,0.00,VWS V14.01,2013-02-13 13:58:00,
2013-02-13 07:04:00,23.4,5.7,21.11,WSW,252,7.6,7.6,46,0.00,,---,0.00,VWS V14.01,2013-02-13 14:04:00,
2013-02-13 07:09:00,23.4,5.7,21.11,WSW,252,8.3,8.3,46,0.00,,---,0.00,VWS V14.01,2013-02-13 14:09:00,
2013-02-13 07:15:00,23.5,6.3,21.11,WSW,255,8.1,8.1,47,0.00,,---,0.00,VWS V14.01,2013-02-13 14:15:00,
2013-02-13 07:21:00,23.7,6.4,21.11,West,263,10.1,11.0,47,0.00,,---,0.00,VWS V14.01,2013-02-13 14:21:00,
2013-02-13 07:26:00,24.3,7.4,21.11,West,259,8.7,10.1,48,0.00,,---,0.00,VWS V14.01,2013-02-13 14:26:00,
2013-02-13 07:32:00,24.8,7.9,21.11,WSW,254,10.1,10.1,48,0.00,,---,0.00,VWS V14.01,2013-02-13 14:32:00,
2013-02-13 07:37:00,24.8,7.9,21.11,WSW,248,8.3,8.3,48,0.00,,---,0.00,VWS V14.01,2013-02-13 14:37:00,
2013-02-13 07:43:00,25.3,7.9,21.11,WSW,252,9.6,9.6,47,0.00,,---,0.00,VWS V14.01,2013-02-13 14:43:00,
2013-02-13 07:49:00,25.9,8.4,21.11,WSW,256,11.0,11.0,47,0.00,,---,0.00,VWS V14.01,2013-02-13 14:49:00,
2013-02-13 07:54:00,26.4,8.9,21.11,WSW,253,11.0,11.0,47,0.00,,---,0.00,VWS V14.01,2013-02-13 14:54:00,
2013-02-13 08:00:00,27.0,8.9,21.11,West,259,11.4,11.4,46,0.00,,---,0.00,VWS V14.01,2013-02-13 15:00:00,
2013-02-13 08:05:00,27.3,8.8,21.11,WSW,258,8.1,8.7,45,0.00,,---,0.00,VWS V14.01,2013-02-13 15:05:00,
2013-02-13 08:10:00,27.3,8.8,21.11,WSW,253,8.3,10.1,45,0.00,,---,0.00,VWS V14.01,2013-02-13 15:10:00,
2013-02-13 08:15:00,28.6,9.4,21.11,WSW,249,11.0,11.0,44,0.00,,---,0.00,VWS V14.01,2013-02-13 15:15:00,
2013-02-13 08:21:00,28.6,9.4,21.11,West,274,12.8,12.8,44,0.00,,---,0.00,VWS V14.01,2013-02-13 15:21:00,
2013-02-13 08:26:00,29.7,9.9,21.11,West,262,8.3,8.3,43,0.00,,---,0.00,VWS V14.01,2013-02-13 15:26:00,
2013-02-13 08:31:00,29.7,9.9,21.11,West,262,13.2,13.2,43,0.00,,---,0.00,VWS V14.01,2013-02-13 15:31:00,
2013-02-13 08:36:00,29.7,9.9,21.11,West,274,15.9,15.9,43,0.00,,---,0.00,VWS V14.01,2013-02-13 15:36:00,
2013-02-13 08:42:00,31.5,10.5,21.11,West,274,15.4,15.4,41,0.00,,---,0.00,VWS V14.01,2013-02-13 15:42:00,
2013-02-13 08:47:00,31.5,10.5,21.11,West,261,13.2,13.2,41,0.00,,---,0.00,VWS V14.01,2013-02-13 15:47:00,
2013-02-13 08:53:00,32.5,11.5,21.11,West,268,16.3,17.0,41,0.00,,---,0.00,VWS V14.01,2013-02-13 15:53:00,
2013-02-13 08:59:00,32.5,11.5,21.11,West,273,16.8,16.8,41,0.00,,---,0.00,VWS V14.01,2013-02-13 15:59:00,
2013-02-13 09:04:00,32.5,11.5,21.11,West,260,16.8,16.8,41,0.00,,---,0.00,VWS V14.01,2013-02-13 16:04:00,
2013-02-13 09:09:00,33.8,12.1,21.11,West,270,19.2,19.2,40,0.00,,---,0.00,VWS V14.01,2013-02-13 16:09:00,
2013-02-13 09:14:00,35.1,13.2,21.11,West,276,15.9,15.9,40,0.00,,---,0.00,VWS V14.01,2013-02-13 16:14:00,
2013-02-13 09:20:00,35.2,12.8,21.11,West,270,15.9,17.0,39,0.00,,---,0.00,VWS V14.01,2013-02-13 16:20:00,
2013-02-13 09:25:00,35.8,12.7,21.11,WNW,282,14.1,14.1,38,0.00,,---,0.00,VWS V14.01,2013-02-13 16:25:00,
2013-02-13 09:31:00,37.0,13.2,21.11,West,272,20.6,20.6,37,0.00,,---,0.00,VWS V14.01,2013-02-13 16:31:00,
2013-02-13 09:36:00,37.4,12.9,21.11,WNW,284,24.2,24.2,36,0.00,,---,0.00,VWS V14.01,2013-02-13 16:36:00,
2013-02-13 09:42:00,37.8,12.6,21.11,WNW,283,19.7,19.7,35,0.00,,---,0.00,VWS V14.01,2013-02-13 16:42:00,
2013-02-13 09:47:00,37.8,12.6,21.11,WNW,298,19.2,23.3,35,0.00,,---,0.00,VWS V14.01,2013-02-13 16:47:00,
2013-02-13 09:52:00,37.8,12.6,21.11,WNW,298,19.2,19.2,35,0.00,,---,0.00,VWS V14.01,2013-02-13 16:52:00,
2013-02-13 09:57:00,38.5,12.6,21.11,West,275,17.4,17.4,34,0.00,,---,0.00,VWS V14.01,2013-02-13 16:57:00,
2013-02-13 10:03:00,38.8,12.9,21.11,WNW,302,23.7,23.7,34,0.00,,---,0.00,VWS V14.01,2013-02-13 17:03:00,
2013-02-13 10:08:00,39.6,12.9,21.11,West,271,11.4,13.2,33,0.00,,---,0.00,VWS V14.01,2013-02-13 17:08:00,
2013-02-13 10:14:00,39.6,12.9,21.11,WNW,289,21.5,21.5,33,0.00,,---,0.00,VWS V14.01,2013-02-13 17:14:00,
2013-02-13 10:20:00,40.1,13.3,21.11,NW,306,21.9,21.9,33,0.00,,---,0.00,VWS V14.01,2013-02-13 17:20:00,
2013-02-13 10:25:00,40.3,12.8,21.11,WNW,287,11.9,14.5,32,0.00,,---,0.00,VWS V14.01,2013-02-13 17:25:00,
2013-02-13 10:31:00,40.5,12.9,21.11,West,265,23.3,23.3,32,0.00,,---,0.00,VWS V14.01,2013-02-13 17:31:00,
2013-02-13 10:36:00,41.0,13.4,21.11,WNW,288,23.3,23.7,32,0.00,,---,0.00,VWS V14.01,2013-02-13 17:36:00,
2013-02-13 10:41:00,41.0,13.4,21.11,WNW,287,13.6,13.6,32,0.00,,---,0.00,VWS V14.01,2013-02-13 17:41:00,
2013-02-13 10:46:00,41.9,13.5,21.11,West,268,15.4,15.4,31,0.00,,---,0.00,VWS V14.01,2013-02-13 17:46:00,
2013-02-13 10:52:00,42.1,13.6,21.11,WNW,284,22.4,22.4,31,0.00,,---,0.00,VWS V14.01,2013-02-13 17:52:00,
2013-02-13 10:57:00,42.6,14.1,21.11,West,276,23.7,24.6,31,0.00,,---,0.00,VWS V14.01,2013-02-13 17:57:00,
2013-02-13 11:02:00,42.8,14.3,21.11,WNW,282,18.3,21.5,31,0.00,,---,0.00,VWS V14.01,2013-02-13 18:02:00,
2013-02-13 11:07:00,43.3,14.8,21.11,West,267,16.3,16.3,31,0.00,,---,0.00,VWS V14.01,2013-02-13 18:07:00,
2013-02-13 11:13:00,43.5,14.2,21.11,WNW,286,19.2,22.8,30,0.00,,---,0.00,VWS V14.01,2013-02-13 18:13:00,
2013-02-13 11:19:00,44.1,14.6,21.11,West,264,23.3,23.3,30,0.00,,---,0.00,VWS V14.01,2013-02-13 18:19:00,
2013-02-13 11:24:00,44.4,14.9,21.11,WNW,286,22.8,22.8,30,0.00,,---,0.00,VWS V14.01,2013-02-13 18:24:00,
2013-02-13 11:30:00,44.8,15.3,21.11,West,270,12.8,22.8,30,0.00,,---,0.00,VWS V14.01,2013-02-13 18:30:00,
2013-02-13 11:35:00,45.3,14.9,21.11,West,280,25.1,25.1,29,0.00,,---,0.00,VWS V14.01,2013-02-13 18:35:00,
2013-02-13 11:41:00,45.3,14.9,21.11,West,271,22.4,22.4,29,0.00,,---,0.00,VWS V14.01,2013-02-13 18:41:00,
2013-02-13 11:46:00,45.9,15.4,21.11,West,275,21.9,21.9,29,0.00,,---,0.00,VWS V14.01,2013-02-13 18:46:00,
2013-02-13 11:51:00,46.4,15.9,21.11,WNW,289,16.3,16.3,29,0.00,,---,0.00,VWS V14.01,2013-02-13 18:51:00,
2013-02-13 11:56:00,46.4,15.9,21.11,WNW,287,23.7,23.7,29,0.00,,---,0.00,VWS V14.01,2013-02-13 18:56:00,
2013-02-13 12:02:00,46.8,15.4,21.11,WNW,288,25.7,25.7,28,0.00,,---,0.00,VWS V14.01,2013-02-13 19:02:00,
2013-02-13 12:08:00,46.8,15.4,21.11,WNW,283,30.2,30.2,28,0.00,,---,0.00,VWS V14.01,2013-02-13 19:08:00,
2013-02-13 12:13:00,47.1,15.7,21.11,WNW,294,28.0,28.0,28,0.00,,---,0.00,VWS V14.01,2013-02-13 19:13:00,
2013-02-13 12:19:00,46.8,15.4,21.11,WNW,286,27.5,27.5,28,0.00,,---,0.00,VWS V14.01,2013-02-13 19:19:00,
2013-02-13 12:25:00,46.8,15.4,21.11,West,266,27.1,27.1,28,0.00,,---,0.00,VWS V14.01,2013-02-13 19:25:00,
2013-02-13 12:30:00,46.8,15.4,21.11,WNW,287,25.5,25.5,28,0.00,,---,0.00,VWS V14.01,2013-02-13 19:30:00,
2013-02-13 12:35:00,47.1,15.7,21.11,WNW,297,28.0,28.0,28,0.00,,---,0.00,VWS V14.01,2013-02-13 19:35:00,
2013-02-13 12:41:00,47.3,15.0,21.11,WNW,290,23.7,23.7,27,0.00,,---,0.00,VWS V14.01,2013-02-13 19:41:00,
2013-02-13 12:47:00,47.3,15.9,21.11,WNW,287,24.2,24.2,28,0.00,,---,0.00,VWS V14.01,2013-02-13 19:47:00,
2013-02-13 12:52:00,47.5,16.0,21.11,WNW,286,22.4,22.4,28,0.00,,---,0.00,VWS V14.01,2013-02-13 19:52:00,
2013-02-13 12:57:00,47.3,15.0,21.11,WNW,297,22.8,22.8,27,0.00,,---,0.00,VWS V14.01,2013-02-13 19:57:00,
2013-02-13 13:02:00,47.1,14.9,21.11,WNW,291,17.4,17.4,27,0.00,,---,0.00,VWS V14.01,2013-02-13 20:02:00,
2013-02-13 13:08:00,47.1,14.9,21.11,WNW,285,24.2,24.2,27,0.00,,---,0.00,VWS V14.01,2013-02-13 20:08:00,
2013-02-13 13:13:00,47.3,15.0,21.11,West,278,22.4,28.4,27,0.00,,---,0.00,VWS V14.01,2013-02-13 20:13:00,
2013-02-13 13:18:00,47.5,15.2,21.11,West,266,23.7,23.7,27,0.00,,---,0.00,VWS V14.01,2013-02-13 20:18:00,
2013-02-13 13:24:00,48.0,15.6,21.11,West,278,17.4,23.7,27,0.00,,---,0.00,VWS V14.01,2013-02-13 20:24:00,
2013-02-13 13:29:00,48.0,15.6,21.11,SW,229,12.8,12.8,27,0.00,,---,0.00,VWS V14.01,2013-02-13 20:29:00,
2013-02-13 13:34:00,48.6,16.1,21.11,WNW,290,24.2,24.2,27,0.00,,---,0.00,VWS V14.01,2013-02-13 20:34:00,
2013-02-13 13:39:00,48.6,16.1,21.11,WNW,294,22.8,24.2,27,0.00,,---,0.00,VWS V14.01,2013-02-13 20:39:00,
2013-02-13 13:44:00,48.6,16.1,21.11,WNW,290,22.8,22.8,27,0.00,,---,0.00,VWS V14.01,2013-02-13 20:44:00,
2013-02-13 13:50:00,48.9,16.4,21.11,WNW,289,21.0,21.0,27,0.00,,---,0.00,VWS V14.01,2013-02-13 20:50:00,
2013-02-13 13:56:00,48.9,16.4,21.11,WNW,284,23.7,23.7,27,0.00,,---,0.00,VWS V14.01,2013-02-13 20:56:00,
2013-02-13 14:01:00,48.9,16.4,21.11,WNW,294,15.4,15.4,27,0.00,,---,0.00,VWS V14.01,2013-02-13 21:01:00,
2013-02-13 14:06:00,48.9,16.4,21.11,West,270,15.4,17.4,27,0.00,,---,0.00,VWS V14.01,2013-02-13 21:06:00,
2013-02-13 14:12:00,48.9,15.6,21.11,West,275,17.0,17.0,26,0.00,,---,0.00,VWS V14.01,2013-02-13 21:12:00,
2013-02-13 14:18:00,48.6,16.1,21.11,WNW,291,19.7,19.7,27,0.00,,---,0.00,VWS V14.01,2013-02-13 21:18:00,
2013-02-13 14:24:00,48.2,15.8,21.11,West,268,18.8,18.8,27,0.00,,---,0.00,VWS V14.01,2013-02-13 21:24:00,
2013-02-13 14:29:00,48.2,15.8,21.11,West,274,13.2,13.2,27,0.00,,---,0.00,VWS V14.01,2013-02-13 21:29:00,
2013-02-13 14:34:00,48.4,16.0,21.11,West,272,15.4,20.1,27,0.00,,---,0.00,VWS V14.01,2013-02-13 21:34:00,
2013-02-13 14:40:00,48.7,16.3,21.11,West,272,15.4,15.4,27,0.00,,---,0.00,VWS V14.01,2013-02-13 21:40:00,
2013-02-13 14:46:00,48.9,16.4,21.11,WSW,249,18.8,18.8,27,0.00,,---,0.00,VWS V14.01,2013-02-13 21:46:00,
2013-02-13 14:51:00,48.7,16.3,21.11,West,271,12.8,15.4,27,0.00,,---,0.00,VWS V14.01,2013-02-13 21:51:00,
2013-02-13 14:56:00,48.7,16.3,21.11,West,280,15.0,15.0,27,0.00,,---,0.00,VWS V14.01,2013-02-13 21:56:00,
2013-02-13 15:01:00,48.6,16.1,21.11,WNW,294,17.4,17.4,27,0.00,,---,0.00,VWS V14.01,2013-02-13 22:01:00,
2013-02-13 15:07:00,48.6,16.1,21.11,West,279,12.8,12.8,27,0.00,,---,0.00,VWS V14.01,2013-02-13 22:07:00,
2013-02-13 15:13:00,48.7,16.3,21.11,West,267,15.4,17.4,27,0.00,,---,0.00,VWS V14.01,2013-02-13 22:13:00,
2013-02-13 15:18:00,48.7,16.3,21.11,West,265,19.7,19.7,27,0.00,,---,0.00,VWS V14.01,2013-02-13 22:18:00,
2013-02-13 15:23:00,48.7,16.3,21.11,West,261,11.9,12.8,27,0.00,,---,0.00,VWS V14.01,2013-02-13 22:23:00,
2013-02-13 15:28:00,48.6,16.1,21.11,WNW,286,11.0,11.0,27,0.00,,---,0.00,VWS V14.01,2013-02-13 22:28:00,
2013-02-13 15:33:00,48.6,16.1,21.11,West,262,13.6,13.6,27,0.00,,---,0.00,VWS V14.01,2013-02-13 22:33:00,
2013-02-13 15:39:00,48.6,16.1,21.11,West,279,17.0,17.0,27,0.00,,---,0.00,VWS V14.01,2013-02-13 22:39:00,
2013-02-13 15:44:00,48.6,16.1,21.11,West,277,14.1,15.0,27,0.00,,---,0.00,VWS V14.01,2013-02-13 22:44:00,
2013-02-13 15:49:00,48.6,16.1,21.11,WNW,289,11.4,11.4,27,0.00,,---,0.00,VWS V14.01,2013-02-13 22:49:00,
2013-02-13 15:54:00,48.4,15.1,21.11,WNW,282,15.0,15.0,26,0.00,,---,0.00,VWS V14.01,2013-02-13 22:54:00,
2013-02-13 15:59:00,48.4,15.1,21.11,West,270,11.0,13.2,26,0.00,,---,0.00,VWS V14.01,2013-02-13 22:59:00,
2013-02-13 16:04:00,48.2,15.8,21.11,West,275,8.7,8.7,27,0.00,,---,0.00,VWS V14.01,2013-02-13 23:04:00,
2013-02-13 16:10:00,48.0,15.6,21.11,West,272,8.1,8.1,27,0.00,,---,0.00,VWS V14.01,2013-02-13 23:10:00,
2013-02-13 16:16:00,48.0,15.6,21.11,West,276,10.1,10.1,27,0.00,,---,0.00,VWS V14.01,2013-02-13 23:16:00,
2013-02-13 16:21:00,48.0,15.6,21.11,WNW,292,8.1,8.1,27,0.00,,---,0.00,VWS V14.01,2013-02-13 23:21:00,
2013-02-13 16:26:00,47.7,15.3,21.11,WNW,291,8.1,8.1,27,0.00,,---,0.00,VWS V14.01,2013-02-13 23:26:00,
2013-02-13 16:31:00,47.5,15.2,21.11,WNW,290,7.6,7.6,27,0.00,,---,0.00,VWS V14.01,2013-02-13 23:31:00,
2013-02-13 16:36:00,47.5,15.2,21.11,WNW,291,6.7,6.7,27,0.00,,---,0.00,VWS V14.01,2013-02-13 23:36:00,
2013-02-13 16:41:00,47.1,14.9,21.11,West,275,5.8,5.8,27,0.00,,---,0.00,VWS V14.01,2013-02-13 23:41:00,
2013-02-13 16:46:00,46.4,14.2,21.11,West,274,6.3,6.3,27,0.00,,---,0.00,VWS V14.01,2013-02-13 23:46:00,
2013-02-13 16:53:00,46.0,14.8,21.11,West,273,6.3,6.3,28,0.00,,---,0.00,VWS V14.01,2013-02-13 23:53:00,
2013-02-13 16:59:00,46.0,14.8,21.11,West,280,5.4,5.8,28,0.00,,---,0.00,VWS V14.01,2013-02-13 23:59:00,
2013-02-13 17:04:00,45.9,14.6,21.11,West,275,5.8,5.8,28,0.00,,---,0.00,VWS V14.01,2013-02-14 00:04:00,
2013-02-13 17:09:00,45.3,14.1,21.11,West,265,4.9,4.9,28,0.00,,---,0.00,VWS V14.01,2013-02-14 00:09:00,
2013-02-13 17:14:00,45.3,14.1,21.11,WSW,244,6.7,6.7,28,0.00,,---,0.00,VWS V14.01,2013-02-14 00:14:00,
2013-02-13 17:20:00,43.5,12.6,21.11,WSW,247,6.3,6.7,28,0.00,,---,0.00,VWS V14.01,2013-02-14 00:20:00,
2013-02-13 17:25:00,42.8,12.0,21.11,WSW,254,6.3,6.3,28,0.00,,---,0.00,VWS V14.01,2013-02-14 00:25:00,
2013-02-13 17:31:00,42.8,12.0,21.11,WSW,248,8.1,8.1,28,0.00,,---,0.00,VWS V14.01,2013-02-14 00:31:00,
2013-02-13 17:37:00,41.7,11.8,21.11,West,259,6.7,7.6,29,0.00,,---,0.00,VWS V14.01,2013-02-14 00:37:00,
2013-02-13 17:42:00,41.7,11.8,21.11,WSW,248,8.1,8.1,29,0.00,,---,0.00,VWS V14.01,2013-02-14 00:42:00,
2013-02-13 17:48:00,40.1,10.4,21.11,WSW,252,5.8,8.1,29,0.00,,---,0.00,VWS V14.01,2013-02-14 00:48:00,
2013-02-13 17:56:00,39.0,10.2,21.11,WSW,249,5.8,5.8,30,0.00,,---,0.00,VWS V14.01,2013-02-14 00:56:00,
2013-02-13 18:03:00,38.5,9.8,21.11,WSW,250,4.9,4.9,30,0.00,,---,0.00,VWS V14.01,2013-02-14 01:03:00,
2013-02-13 18:10:00,37.6,9.7,21.11,West,259,6.3,6.3,31,0.00,,---,0.00,VWS V14.01,2013-02-14 01:10:00,
2013-02-13 18:16:00,36.9,9.8,21.11,West,269,8.7,8.7,32,0.00,,---,0.00,VWS V14.01,2013-02-14 01:16:00,
2013-02-13 18:22:00,36.9,9.8,21.11,West,271,10.1,10.1,32,0.00,,---,0.00,VWS V14.01,2013-02-14 01:22:00,
2013-02-13 18:28:00,36.3,10.6,21.11,West,260,8.3,10.1,34,0.00,,---,0.00,VWS V14.01,2013-02-14 01:28:00,
2013-02-13 18:33:00,36.1,11.8,21.11,West,264,8.1,8.1,36,0.00,,---,0.00,VWS V14.01,2013-02-14 01:33:00,
2013-02-13 18:41:00,36.1,12.4,21.11,West,263,7.6,8.7,37,0.00,,---,0.00,VWS V14.01,2013-02-14 01:41:00,
2013-02-13 18:47:00,36.0,12.8,21.11,West,270,10.5,11.0,38,0.00,,---,0.00,VWS V14.01,2013-02-14 01:47:00,
2013-02-13 18:53:00,35.2,13.4,21.11,West,265,10.1,10.1,40,0.00,,---,0.00,VWS V14.01,2013-02-14 01:53:00,
2013-02-13 18:59:00,34.5,12.7,21.11,West,261,10.5,10.5,40,0.00,,---,0.00,VWS V14.01,2013-02-14 01:59:00,
2013-02-13 19:04:00,34.2,12.4,21.11,West,276,10.5,12.3,40,0.00,,---,0.00,VWS V14.01,2013-02-14 02:04:00,
2013-02-13 19:09:00,34.3,13.1,21.11,WNW,287,13.2,13.2,41,0.00,,---,0.00,VWS V14.01,2013-02-14 02:09:00,
2013-02-13 19:16:00,36.5,15.6,21.11,West,281,15.4,15.4,42,0.00,,---,0.00,VWS V14.01,2013-02-14 02:16:00,
2013-02-13 19:27:00,37.6,15.5,21.11,West,279,10.5,10.5,40,0.00,,---,0.00,VWS V14.01,2013-02-14 02:27:00,
2013-02-13 19:32:00,37.6,15.5,21.11,West,274,12.3,14.1,40,0.00,,---,0.00,VWS V14.01,2013-02-14 02:32:00,
2013-02-13 19:38:00,37.2,15.1,21.11,West,272,11.0,11.0,40,0.00,,---,0.00,VWS V14.01,2013-02-14 02:38:00,
2013-02-13 19:43:00,36.0,14.0,21.11,West,270,10.1,10.1,40,0.00,,---,0.00,VWS V14.01,2013-02-14 02:43:00,
2013-02-13 19:52:00,34.7,13.4,21.11,West,268,8.3,10.5,41,0.00,,---,0.00,VWS V14.01,2013-02-14 02:52:00,
2013-02-13 19:57:00,34.2,12.9,21.11,West,273,10.1,10.1,41,0.00,,---,0.00,VWS V14.01,2013-02-14 02:57:00,
2013-02-13 20:03:00,33.4,12.3,21.11,West,275,11.0,11.0,41,0.00,,---,0.00,VWS V14.01,2013-02-14 03:03:00,
2013-02-13 20:08:00,32.5,12.0,21.11,WNW,292,8.1,8.1,42,0.00,,---,0.00,VWS V14.01,2013-02-14 03:08:00,
2013-02-13 20:13:00,32.4,12.4,21.11,WNW,290,15.0,16.8,43,0.00,,---,0.00,VWS V14.01,2013-02-14 03:13:00,
2013-02-13 20:18:00,32.4,12.4,21.11,WNW,299,19.2,19.2,43,0.00,,---,0.00,VWS V14.01,2013-02-14 03:18:00,
2013-02-13 20:23:00,32.4,12.4,21.11,NW,307,15.4,15.4,43,0.00,,---,0.00,VWS V14.01,2013-02-14 03:23:00,
2013-02-13 20:29:00,36.5,17.2,21.11,NW,325,17.0,17.0,45,0.00,,---,0.00,VWS V14.01,2013-02-14 03:29:00,
2013-02-13 20:34:00,36.7,16.8,21.11,WNW,284,16.8,16.8,44,0.00,,---,0.00,VWS V14.01,2013-02-14 03:34:00,
2013-02-13 20:39:00,36.5,17.2,21.11,NW,313,18.3,18.3,45,0.00,,---,0.00,VWS V14.01,2013-02-14 03:39:00,
2013-02-13 20:44:00,36.5,17.2,21.11,NW,307,13.2,13.2,45,0.00,,---,0.00,VWS V14.01,2013-02-14 03:44:00,
2013-02-13 20:50:00,36.5,17.2,21.11,WNW,295,19.2,19.2,45,0.00,,---,0.00,VWS V14.01,2013-02-14 03:50:00,
2013-02-13 20:55:00,36.5,19.2,21.11,WNW,299,20.1,23.3,49,0.00,,---,0.00,VWS V14.01,2013-02-14 03:55:00,
2013-02-13 21:00:00,36.9,20.4,21.11,NW,311,24.6,24.6,51,0.00,,---,0.00,VWS V14.01,2013-02-14 04:00:00,
2013-02-13 21:05:00,37.0,21.1,21.11,WNW,298,19.7,21.5,52,0.00,,---,0.00,VWS V14.01,2013-02-14 04:05:00,
2013-02-13 21:11:00,37.0,21.1,21.11,NW,307,15.0,15.0,52,0.00,,---,0.00,VWS V14.01,2013-02-14 04:11:00,
2013-02-13 21:16:00,37.0,21.1,21.11,NW,306,15.4,15.4,52,0.00,,---,0.00,VWS V14.01,2013-02-14 04:16:00,
2013-02-13 21:21:00,36.7,20.7,21.11,WNW,294,15.0,15.0,52,0.00,,---,0.00,VWS V14.01,2013-02-14 04:21:00,
2013-02-13 21:27:00,36.1,20.2,21.11,WNW,292,11.0,11.0,52,0.00,,---,0.00,VWS V14.01,2013-02-14 04:27:00,
2013-02-13 21:32:00,36.1,20.2,21.11,WNW,287,12.3,12.3,52,0.00,,---,0.00,VWS V14.01,2013-02-14 04:32:00,
2013-02-13 21:38:00,36.1,20.2,21.11,WNW,285,10.5,10.5,52,0.00,,---,0.00,VWS V14.01,2013-02-14 04:38:00,
2013-02-13 21:43:00,34.9,19.5,21.11,West,279,13.2,13.2,53,0.00,,---,0.00,VWS V14.01,2013-02-14 04:43:00,
2013-02-13 21:48:00,34.9,19.5,21.11,West,266,12.8,13.2,53,0.00,,---,0.00,VWS V14.01,2013-02-14 04:48:00,
2013-02-13 21:53:00,34.2,18.8,21.11,WNW,288,10.5,10.5,53,0.00,,---,0.00,VWS V14.01,2013-02-14 04:53:00,
2013-02-13 21:58:00,34.0,18.7,21.11,WNW,290,13.2,13.2,53,0.00,,---,0.00,VWS V14.01,2013-02-14 04:58:00,
2013-02-13 22:00:00,34.0,18.7,21.11,WNW,291,12.8,12.8,53,0.00,,---,0.00,VWS V14.01,2013-02-14 05:00:00,
2013-02-13 22:01:00,34.0,18.7,21.11,WNW,292,14.5,15.9,53,0.00,,---,0.00,VWS V14.01,2013-02-14 05:01:00,
2013-02-13 22:07:00,33.6,19.6,21.11,NW,305,16.3,16.3,56,0.00,,---,0.00,VWS V14.01,2013-02-14 05:07:00,
2013-02-13 22:12:00,33.6,20.0,21.11,WNW,298,15.0,15.0,57,0.00,,---,0.00,VWS V14.01,2013-02-14 05:12:00,
2013-02-13 22:17:00,33.6,20.0,21.11,WNW,297,17.9,17.9,57,0.00,,---,0.00,VWS V14.01,2013-02-14 05:17:00,
2013-02-13 22:22:00,33.6,20.8,21.11,WNW,297,13.2,13.2,59,0.00,,---,0.00,VWS V14.01,2013-02-14 05:22:00,
2013-02-13 22:28:00,33.6,20.8,21.11,WNW,287,13.2,13.2,59,0.00,,---,0.00,VWS V14.01,2013-02-14 05:28:00,
2013-02-13 22:33:00,33.4,20.7,21.11,West,279,13.2,15.0,59,0.00,,---,0.00,VWS V14.01,2013-02-14 05:33:00,
2013-02-13 22:38:00,33.3,20.5,21.11,WNW,282,12.3,12.3,59,0.00,,---,0.00,VWS V14.01,2013-02-14 05:38:00,
2013-02-13 22:43:00,33.3,20.5,21.11,WNW,285,10.5,11.9,59,0.00,,---,0.00,VWS V14.01,2013-02-14 05:43:00,
2013-02-13 22:49:00,32.7,20.4,21.11,West,271,10.5,10.5,60,0.00,,---,0.00,VWS V14.01,2013-02-14 05:49:00,
2013-02-13 22:54:00,32.7,20.4,21.11,WNW,286,10.1,12.8,60,0.00,,---,0.00,VWS V14.01,2013-02-14 05:54:00,
2013-02-13 22:56:00,32.7,20.4,21.11,WNW,286,10.1,10.1,60,0.00,,---,0.00,VWS V14.01,2013-02-14 05:56:00,
2013-02-13 23:01:00,32.5,20.2,21.11,WNW,282,11.0,11.0,60,0.00,,---,0.00,VWS V14.01,2013-02-14 06:01:00,
2013-02-13 23:07:00,32.5,20.2,21.11,WNW,303,15.4,16.8,60,0.00,,---,0.00,VWS V14.01,2013-02-14 06:07:00,
2013-02-13 23:13:00,32.7,21.5,21.11,WNW,291,17.0,17.0,63,0.00,,---,0.00,VWS V14.01,2013-02-14 06:13:00,
2013-02-13 23:18:00,33.1,21.9,21.11,WNW,295,17.0,19.7,63,0.00,,---,0.00,VWS V14.01,2013-02-14 06:18:00,
2013-02-13 23:24:00,33.1,21.9,21.11,WNW,284,18.8,18.8,63,0.00,,---,0.00,VWS V14.01,2013-02-14 06:24:00,
2013-02-13 23:29:00,33.4,21.8,21.11,WNW,299,17.9,17.9,62,0.00,,---,0.00,VWS V14.01,2013-02-14 06:29:00,
2013-02-13 23:34:00,33.4,21.5,21.11,WNW,293,17.9,17.9,61,0.00,,---,0.00,VWS V14.01,2013-02-14 06:34:00,
2013-02-13 23:39:00,33.3,20.9,21.11,WNW,298,19.2,19.2,60,0.00,,---,0.00,VWS V14.01,2013-02-14 06:39:00,
2013-02-13 23:45:00,33.3,20.9,21.11,WNW,295,15.4,15.4,60,0.00,,---,0.00,VWS V14.01,2013-02-14 06:45:00,
2013-02-13 23:51:00,32.9,20.2,21.11,WNW,298,15.0,15.0,59,0.00,,---,0.00,VWS V14.01,2013-02-14 06:51:00,
2013-02-13 23:56:00,32.7,20.0,21.11,WNW,302,15.4,15.4,59,0.00,,---,0.00,VWS V14.01,2013-02-14 06:56:00,